createdAt,value
2022-12-27T00:07:37.951Z,13.73
2022-12-27T00:17:42.477Z,13.23
2022-12-27T00:27:45.937Z,11.13
2022-12-27T00:37:51.828Z,11.00
2022-12-27T00:47:53.995Z,11.83
2022-12-27T00:58:00.990Z,11.10
2022-12-27T01:08:08.032Z,11.13
2022-12-27T01:18:10.192Z,10.83
2022-12-27T01:28:16.957Z,10.20
2022-12-27T01:38:21.287Z,10.57
2022-12-27T01:48:25.699Z,9.00
2022-12-27T01:58:35.692Z,8.60
2022-12-27T02:08:49.281Z,8.77
2022-12-27T02:18:56.036Z,8.30
2022-12-27T02:29:22.239Z,8.47
2022-12-27T02:39:32.128Z,8.50
2022-12-27T02:50:00.817Z,7.50
2022-12-27T03:00:21.515Z,8.07
2022-12-27T03:11:13.580Z,8.23
2022-12-27T03:21:49.372Z,9.17
2022-12-27T03:32:14.187Z,3.63
2022-12-27T03:42:40.783Z,0.77
2022-12-27T03:52:57.130Z,0.87
2022-12-27T04:03:01.505Z,0.80
2022-12-27T04:13:22.848Z,0.90
2022-12-27T04:23:43.426Z,1.10
2022-12-27T04:34:06.578Z,1.20
2022-12-27T04:44:30.667Z,1.63
2022-12-27T04:54:53.701Z,1.30
2022-12-27T05:04:58.898Z,1.50
2022-12-27T05:15:01.119Z,1.50
2022-12-27T05:25:38.912Z,1.27
2022-12-27T05:35:44.575Z,1.20
2022-12-27T05:45:49.170Z,1.50
2022-12-27T05:55:58.881Z,1.40
2022-12-27T06:06:10.863Z,1.30
2022-12-27T06:16:13.304Z,1.73
2022-12-27T06:26:19.413Z,2.00
2022-12-27T06:36:24.826Z,2.00
2022-12-27T06:46:31.612Z,1.60
2022-12-27T06:56:36.171Z,2.17
2022-12-27T07:06:38.629Z,2.00
2022-12-27T07:16:42.982Z,1.67
2022-12-27T07:26:45.132Z,2.37
2022-12-27T07:36:49.852Z,1.80
2022-12-27T07:46:58.268Z,2.20
2022-12-27T07:57:02.848Z,1.73
2022-12-27T08:07:13.969Z,2.90
2022-12-27T08:17:22.843Z,2.00
2022-12-27T08:27:25.558Z,2.23
2022-12-27T08:37:30.069Z,2.43
2022-12-27T08:47:37.445Z,3.50
2022-12-27T08:57:43.492Z,2.33
2022-12-27T09:07:48.760Z,2.30
2022-12-27T09:17:50.805Z,3.20
2022-12-27T09:27:52.953Z,2.30
2022-12-27T09:37:54.973Z,2.90
2022-12-27T09:48:06.224Z,2.87
2022-12-27T09:58:16.318Z,2.83
2022-12-27T10:08:35.055Z,2.43
2022-12-27T10:18:46.231Z,3.20
2022-12-27T10:28:58.686Z,3.00
2022-12-27T10:39:06.537Z,3.17
2022-12-27T10:49:25.532Z,3.20
2022-12-27T10:59:29.896Z,3.90
2022-12-27T11:09:50.738Z,3.87
2022-12-27T11:19:54.137Z,3.67
2022-12-27T11:29:57.896Z,3.10
2022-12-27T11:40:21.297Z,2.63
2022-12-27T11:50:50.916Z,2.20
2022-12-27T12:01:23.021Z,3.20
2022-12-27T12:12:03.503Z,3.00
2022-12-27T12:22:17.350Z,2.93
2022-12-27T12:32:41.423Z,3.00
2022-12-27T12:42:56.749Z,3.17
2022-12-27T12:53:21.976Z,3.30
2022-12-27T13:03:39.994Z,3.57
2022-12-27T13:14:12.211Z,4.00
2022-12-27T13:24:29.964Z,4.20
2022-12-27T13:34:50.502Z,3.93
2022-12-27T13:45:07.776Z,4.23
2022-12-27T13:55:28.103Z,4.23
2022-12-27T14:05:48.944Z,5.30
2022-12-27T14:16:03.600Z,4.27
2022-12-27T14:26:40.096Z,4.50
2022-12-27T14:37:03.745Z,5.63
2022-12-27T14:47:20.989Z,4.47
2022-12-27T14:57:34.100Z,5.50
2022-12-27T15:07:53.809Z,4.97
2022-12-27T15:18:16.418Z,5.17
2022-12-27T15:28:53.077Z,5.77
2022-12-27T15:38:59.160Z,4.53
2022-12-27T15:49:40.279Z,4.90
2022-12-27T15:59:47.359Z,5.37
2022-12-27T16:09:50.011Z,5.17
2022-12-27T16:20:01.842Z,4.20
2022-12-27T16:30:06.500Z,4.47
2022-12-27T16:40:30.959Z,3.83
2022-12-27T16:50:46.229Z,4.63
2022-12-27T17:00:57.660Z,4.27
2022-12-27T17:11:04.867Z,4.73
2022-12-27T17:21:12.649Z,4.33
2022-12-27T17:31:44.184Z,4.60
2022-12-27T17:42:31.734Z,3.73
2022-12-27T17:52:52.619Z,4.10
2022-12-27T18:02:58.540Z,4.77
2022-12-27T18:13:06.633Z,4.63
2022-12-27T18:23:12.118Z,5.00
2022-12-27T18:33:16.899Z,5.30
2022-12-27T18:43:20.634Z,3.40
2022-12-27T18:53:26.568Z,5.17
2022-12-27T19:03:38.199Z,4.17
2022-12-27T19:13:49.739Z,4.30
2022-12-27T19:23:53.348Z,4.93
2022-12-27T19:33:58.989Z,4.60
2022-12-27T19:44:01.276Z,3.97
2022-12-27T19:54:23.964Z,4.87
2022-12-27T20:04:28.978Z,4.60
2022-12-27T20:14:32.372Z,4.87
2022-12-27T20:24:40.181Z,4.93
2022-12-27T20:34:42.931Z,5.13
2022-12-27T20:44:48.632Z,5.00
2022-12-27T20:54:53.075Z,5.23
2022-12-27T21:05:02.538Z,4.90
2022-12-27T21:15:13.804Z,2.97
2022-12-27T21:25:19.316Z,4.17
2022-12-27T21:35:25.015Z,4.57
2022-12-27T21:45:27.334Z,4.47
2022-12-27T21:55:29.524Z,4.57
2022-12-27T22:05:36.150Z,4.77
2022-12-27T22:15:38.480Z,4.57
2022-12-27T22:25:49.008Z,4.10
2022-12-27T22:35:55.161Z,3.60
2022-12-27T22:46:12.474Z,4.63
2022-12-27T22:56:21.339Z,4.70
2022-12-27T23:06:27.623Z,4.33
2022-12-27T23:16:36.493Z,4.43
2022-12-27T23:26:40.123Z,4.57
2022-12-27T23:36:44.862Z,4.30
2022-12-27T23:46:47.116Z,5.17
2022-12-27T23:56:50.060Z,4.97
